sensor_id;sensor_type;location;lat;lon;timestamp;P1;durP1;ratioP1;P2;durP2;ratioP2
49834;SDS011;35729;52.090;13.162;2023-07-24T00:01:33;5.75;;;2.67;;
49834;SDS011;35729;52.090;13.162;2023-07-24T00:04:01;9.13;;;2.78;;
49834;SDS011;35729;52.090;13.162;2023-07-24T00:06:30;3.78;;;2.50;;
49834;SDS011;35729;52.090;13.162;2023-07-24T00:08:58;4.30;;;2.78;;
49834;SDS011;35729;52.090;13.162;2023-07-24T00:11:30;3.17;;;2.20;;
49834;SDS011;35729;52.090;13.162;2023-07-24T00:13:58;3.38;;;2.50;;
49834;SDS011;35729;52.090;13.162;2023-07-24T00:16:26;3.30;;;2.30;;
49834;SDS011;35729;52.090;13.162;2023-07-24T00:18:55;3.70;;;2.33;;
49834;SDS011;35729;52.090;13.162;2023-07-24T00:21:23;2.63;;;1.90;;
49834;SDS011;35729;52.090;13.162;2023-07-24T00:23:52;5.95;;;2.15;;
49834;SDS011;35729;52.090;13.162;2023-07-24T00:26:20;3.83;;;2.28;;
49834;SDS011;35729;52.090;13.162;2023-07-24T00:28:51;4.47;;;2.22;;
49834;SDS011;35729;52.090;13.162;2023-07-24T00:31:19;3.75;;;2.40;;
49834;SDS011;35729;52.090;13.162;2023-07-24T00:33:48;3.20;;;2.13;;
49834;SDS011;35729;52.090;13.162;2023-07-24T00:36:16;5.88;;;2.08;;
49834;SDS011;35729;52.090;13.162;2023-07-24T00:38:45;3.97;;;2.33;;
49834;SDS011;35729;52.090;13.162;2023-07-24T00:41:13;4.25;;;2.20;;
49834;SDS011;35729;52.090;13.162;2023-07-24T00:43:42;6.57;;;2.20;;
49834;SDS011;35729;52.090;13.162;2023-07-24T00:46:13;3.28;;;1.83;;
49834;SDS011;35729;52.090;13.162;2023-07-24T00:48:41;3.92;;;2.50;;
49834;SDS011;35729;52.090;13.162;2023-07-24T00:51:10;4.50;;;2.13;;
49834;SDS011;35729;52.090;13.162;2023-07-24T00:53:38;7.18;;;2.33;;
49834;SDS011;35729;52.090;13.162;2023-07-24T00:56:07;2.63;;;1.95;;
49834;SDS011;35729;52.090;13.162;2023-07-24T00:58:37;3.03;;;2.05;;
49834;SDS011;35729;52.090;13.162;2023-07-24T01:01:05;5.88;;;2.25;;
49834;SDS011;35729;52.090;13.162;2023-07-24T01:03:36;7.28;;;1.70;;
49834;SDS011;35729;52.090;13.162;2023-07-24T01:06:06;4.85;;;2.33;;
49834;SDS011;35729;52.090;13.162;2023-07-24T01:08:34;4.00;;;2.03;;
49834;SDS011;35729;52.090;13.162;2023-07-24T01:11:03;2.90;;;1.85;;
49834;SDS011;35729;52.090;13.162;2023-07-24T01:13:39;2.85;;;1.85;;
49834;SDS011;35729;52.090;13.162;2023-07-24T01:16:12;2.58;;;1.95;;
49834;SDS011;35729;52.090;13.162;2023-07-24T01:18:48;3.08;;;1.90;;
49834;SDS011;35729;52.090;13.162;2023-07-24T01:21:20;2.78;;;2.05;;
49834;SDS011;35729;52.090;13.162;2023-07-24T01:23:58;3.10;;;2.25;;
49834;SDS011;35729;52.090;13.162;2023-07-24T01:26:46;4.03;;;2.15;;
49834;SDS011;35729;52.090;13.162;2023-07-24T01:29:14;2.70;;;1.65;;
49834;SDS011;35729;52.090;13.162;2023-07-24T01:31:49;2.90;;;1.80;;
49834;SDS011;35729;52.090;13.162;2023-07-24T01:34:18;2.30;;;1.63;;
49834;SDS011;35729;52.090;13.162;2023-07-24T01:36:46;2.50;;;1.70;;
49834;SDS011;35729;52.090;13.162;2023-07-24T01:39:17;3.30;;;1.88;;
49834;SDS011;35729;52.090;13.162;2023-07-24T01:41:49;3.40;;;2.13;;
49834;SDS011;35729;52.090;13.162;2023-07-24T01:44:18;4.28;;;1.98;;
49834;SDS011;35729;52.090;13.162;2023-07-24T01:46:46;5.43;;;1.60;;
49834;SDS011;35729;52.090;13.162;2023-07-24T01:49:14;3.15;;;2.08;;
49834;SDS011;35729;52.090;13.162;2023-07-24T01:51:43;5.00;;;1.77;;
49834;SDS011;35729;52.090;13.162;2023-07-24T01:54:11;1.80;;;1.38;;
49834;SDS011;35729;52.090;13.162;2023-07-24T01:56:40;5.18;;;2.85;;
49834;SDS011;35729;52.090;13.162;2023-07-24T01:59:11;2.20;;;1.80;;
49834;SDS011;35729;52.090;13.162;2023-07-24T02:01:40;3.13;;;2.05;;
49834;SDS011;35729;52.090;13.162;2023-07-24T02:04:08;2.38;;;1.80;;
49834;SDS011;35729;52.090;13.162;2023-07-24T02:06:36;4.70;;;1.92;;
49834;SDS011;35729;52.090;13.162;2023-07-24T02:09:05;4.53;;;2.38;;
49834;SDS011;35729;52.090;13.162;2023-07-24T02:11:33;4.25;;;2.13;;
49834;SDS011;35729;52.090;13.162;2023-07-24T02:14:02;2.47;;;1.90;;
49834;SDS011;35729;52.090;13.162;2023-07-24T02:16:33;2.28;;;1.77;;
49834;SDS011;35729;52.090;13.162;2023-07-24T02:19:01;4.40;;;1.83;;
49834;SDS011;35729;52.090;13.162;2023-07-24T02:21:29;4.05;;;1.98;;
49834;SDS011;35729;52.090;13.162;2023-07-24T02:23:58;3.60;;;1.92;;
49834;SDS011;35729;52.090;13.162;2023-07-24T02:26:26;2.25;;;1.98;;
49834;SDS011;35729;52.090;13.162;2023-07-24T02:28:55;2.95;;;1.67;;
49834;SDS011;35729;52.090;13.162;2023-07-24T02:31:23;2.72;;;1.80;;
49834;SDS011;35729;52.090;13.162;2023-07-24T02:33:54;3.42;;;1.58;;
49834;SDS011;35729;52.090;13.162;2023-07-24T02:36:23;2.95;;;2.03;;
49834;SDS011;35729;52.090;13.162;2023-07-24T02:38:51;3.45;;;1.55;;
49834;SDS011;35729;52.090;13.162;2023-07-24T02:41:19;3.88;;;1.70;;
49834;SDS011;35729;52.090;13.162;2023-07-24T02:43:48;2.78;;;2.08;;
49834;SDS011;35729;52.090;13.162;2023-07-24T02:46:16;2.28;;;1.60;;
49834;SDS011;35729;52.090;13.162;2023-07-24T02:48:44;2.78;;;1.80;;
49834;SDS011;35729;52.090;13.162;2023-07-24T02:51:15;3.83;;;1.90;;
49834;SDS011;35729;52.090;13.162;2023-07-24T02:53:44;2.45;;;1.80;;
49834;SDS011;35729;52.090;13.162;2023-07-24T02:56:12;4.95;;;1.60;;
49834;SDS011;35729;52.090;13.162;2023-07-24T02:58:41;1.95;;;1.40;;
49834;SDS011;35729;52.090;13.162;2023-07-24T03:01:09;2.58;;;2.08;;
49834;SDS011;35729;52.090;13.162;2023-07-24T03:03:39;2.50;;;1.80;;
49834;SDS011;35729;52.090;13.162;2023-07-24T03:06:08;2.92;;;1.75;;
49834;SDS011;35729;52.090;13.162;2023-07-24T03:08:39;3.15;;;1.80;;
49834;SDS011;35729;52.090;13.162;2023-07-24T03:11:07;3.63;;;2.10;;
49834;SDS011;35729;52.090;13.162;2023-07-24T03:13:36;3.90;;;2.10;;
49834;SDS011;35729;52.090;13.162;2023-07-24T03:16:06;2.88;;;1.75;;
49834;SDS011;35729;52.090;13.162;2023-07-24T03:18:34;2.80;;;1.85;;
49834;SDS011;35729;52.090;13.162;2023-07-24T03:21:03;2.63;;;1.95;;
49834;SDS011;35729;52.090;13.162;2023-07-24T03:23:31;5.05;;;1.90;;
49834;SDS011;35729;52.090;13.162;2023-07-24T03:26:02;2.60;;;2.03;;
49834;SDS011;35729;52.090;13.162;2023-07-24T03:28:31;2.92;;;1.90;;
49834;SDS011;35729;52.090;13.162;2023-07-24T03:30:59;2.28;;;1.75;;
49834;SDS011;35729;52.090;13.162;2023-07-24T03:33:27;3.83;;;1.85;;
49834;SDS011;35729;52.090;13.162;2023-07-24T03:35:56;2.78;;;1.90;;
49834;SDS011;35729;52.090;13.162;2023-07-24T03:38:24;3.35;;;1.85;;
49834;SDS011;35729;52.090;13.162;2023-07-24T03:40:53;3.22;;;1.90;;
49834;SDS011;35729;52.090;13.162;2023-07-24T03:43:24;2.67;;;1.42;;
49834;SDS011;35729;52.090;13.162;2023-07-24T03:45:52;3.00;;;1.70;;
49834;SDS011;35729;52.090;13.162;2023-07-24T03:48:21;3.17;;;1.92;;
49834;SDS011;35729;52.090;13.162;2023-07-24T03:50:49;3.17;;;1.60;;
49834;SDS011;35729;52.090;13.162;2023-07-24T03:53:18;4.68;;;3.47;;
49834;SDS011;35729;52.090;13.162;2023-07-24T03:55:46;10.13;;;5.95;;
49834;SDS011;35729;52.090;13.162;2023-07-24T03:58:14;2.58;;;2.17;;
49834;SDS011;35729;52.090;13.162;2023-07-24T04:00:46;2.58;;;1.67;;
49834;SDS011;35729;52.090;13.162;2023-07-24T04:03:15;3.15;;;1.65;;
49834;SDS011;35729;52.090;13.162;2023-07-24T04:05:44;3.28;;;1.77;;
49834;SDS011;35729;52.090;13.162;2023-07-24T04:08:12;2.28;;;1.65;;
49834;SDS011;35729;52.090;13.162;2023-07-24T04:10:40;2.85;;;1.77;;
49834;SDS011;35729;52.090;13.162;2023-07-24T04:13:09;3.28;;;1.65;;
49834;SDS011;35729;52.090;13.162;2023-07-24T04:15:37;5.00;;;1.75;;
49834;SDS011;35729;52.090;13.162;2023-07-24T04:18:08;2.30;;;1.73;;
49834;SDS011;35729;52.090;13.162;2023-07-24T04:20:37;1.67;;;1.35;;
49834;SDS011;35729;52.090;13.162;2023-07-24T04:23:05;2.45;;;1.60;;
49834;SDS011;35729;52.090;13.162;2023-07-24T04:25:34;2.80;;;1.88;;
49834;SDS011;35729;52.090;13.162;2023-07-24T04:28:02;2.55;;;1.50;;
49834;SDS011;35729;52.090;13.162;2023-07-24T04:30:31;4.13;;;1.58;;
49834;SDS011;35729;52.090;13.162;2023-07-24T04:33:00;3.10;;;1.83;;
49834;SDS011;35729;52.090;13.162;2023-07-24T04:35:31;2.97;;;1.60;;
49834;SDS011;35729;52.090;13.162;2023-07-24T04:38:00;5.25;;;1.67;;
49834;SDS011;35729;52.090;13.162;2023-07-24T04:40:28;2.03;;;1.40;;
49834;SDS011;35729;52.090;13.162;2023-07-24T04:42:57;2.47;;;1.67;;
49834;SDS011;35729;52.090;13.162;2023-07-24T04:45:26;2.03;;;1.73;;
49834;SDS011;35729;52.090;13.162;2023-07-24T04:47:54;3.70;;;1.73;;
49834;SDS011;35729;52.090;13.162;2023-07-24T04:50:22;4.15;;;1.70;;
49834;SDS011;35729;52.090;13.162;2023-07-24T04:52:54;3.30;;;1.50;;
49834;SDS011;35729;52.090;13.162;2023-07-24T04:55:22;3.10;;;1.75;;
49834;SDS011;35729;52.090;13.162;2023-07-24T04:57:50;5.07;;;2.40;;
49834;SDS011;35729;52.090;13.162;2023-07-24T05:00:19;2.17;;;1.67;;
49834;SDS011;35729;52.090;13.162;2023-07-24T05:02:47;5.18;;;2.15;;
49834;SDS011;35729;52.090;13.162;2023-07-24T05:05:16;2.28;;;1.73;;
49834;SDS011;35729;52.090;13.162;2023-07-24T05:07:45;2.33;;;1.75;;
49834;SDS011;35729;52.090;13.162;2023-07-24T05:10:16;4.47;;;1.30;;
49834;SDS011;35729;52.090;13.162;2023-07-24T05:12:44;4.30;;;1.80;;
49834;SDS011;35729;52.090;13.162;2023-07-24T05:15:13;2.65;;;1.42;;
49834;SDS011;35729;52.090;13.162;2023-07-24T05:17:42;2.20;;;1.42;;
49834;SDS011;35729;52.090;13.162;2023-07-24T05:20:11;2.40;;;1.42;;
49834;SDS011;35729;52.090;13.162;2023-07-24T05:22:39;6.95;;;1.77;;
49834;SDS011;35729;52.090;13.162;2023-07-24T05:25:08;2.70;;;1.30;;
49834;SDS011;35729;52.090;13.162;2023-07-24T05:27:39;4.03;;;1.50;;
49834;SDS011;35729;52.090;13.162;2023-07-24T05:30:08;2.40;;;1.52;;
49834;SDS011;35729;52.090;13.162;2023-07-24T05:32:36;2.25;;;1.40;;
49834;SDS011;35729;52.090;13.162;2023-07-24T05:35:05;2.83;;;1.52;;
49834;SDS011;35729;52.090;13.162;2023-07-24T05:37:34;2.35;;;1.23;;
49834;SDS011;35729;52.090;13.162;2023-07-24T05:40:03;2.47;;;1.70;;
49834;SDS011;35729;52.090;13.162;2023-07-24T05:42:32;4.68;;;1.60;;
49834;SDS011;35729;52.090;13.162;2023-07-24T05:45:10;5.28;;;1.67;;
49834;SDS011;35729;52.090;13.162;2023-07-24T05:47:39;3.55;;;1.40;;
49834;SDS011;35729;52.090;13.162;2023-07-24T05:50:08;4.60;;;1.70;;
49834;SDS011;35729;52.090;13.162;2023-07-24T05:52:38;2.78;;;1.65;;
49834;SDS011;35729;52.090;13.162;2023-07-24T05:55:07;4.28;;;1.50;;
49834;SDS011;35729;52.090;13.162;2023-07-24T05:57:36;2.42;;;1.50;;
49834;SDS011;35729;52.090;13.162;2023-07-24T06:00:09;2.30;;;1.50;;
49834;SDS011;35729;52.090;13.162;2023-07-24T06:02:38;4.97;;;1.70;;
49834;SDS011;35729;52.090;13.162;2023-07-24T06:05:07;2.38;;;1.55;;
49834;SDS011;35729;52.090;13.162;2023-07-24T06:07:36;4.05;;;1.77;;
49834;SDS011;35729;52.090;13.162;2023-07-24T06:10:04;2.35;;;1.60;;
49834;SDS011;35729;52.090;13.162;2023-07-24T06:12:34;3.13;;;1.50;;
49834;SDS011;35729;52.090;13.162;2023-07-24T06:15:02;2.78;;;1.67;;
49834;SDS011;35729;52.090;13.162;2023-07-24T06:17:34;1.80;;;1.40;;
49834;SDS011;35729;52.090;13.162;2023-07-24T06:20:03;2.72;;;1.90;;
49834;SDS011;35729;52.090;13.162;2023-07-24T06:22:32;2.20;;;1.60;;
49834;SDS011;35729;52.090;13.162;2023-07-24T06:25:00;1.77;;;1.40;;
49834;SDS011;35729;52.090;13.162;2023-07-24T06:27:29;3.22;;;1.60;;
49834;SDS011;35729;52.090;13.162;2023-07-24T06:29:57;2.15;;;1.17;;
49834;SDS011;35729;52.090;13.162;2023-07-24T06:32:26;4.70;;;1.40;;
49834;SDS011;35729;52.090;13.162;2023-07-24T06:34:57;2.22;;;1.63;;
49834;SDS011;35729;52.090;13.162;2023-07-24T06:37:26;3.33;;;1.40;;
49834;SDS011;35729;52.090;13.162;2023-07-24T06:40:00;1.77;;;1.35;;
49834;SDS011;35729;52.090;13.162;2023-07-24T06:42:29;4.50;;;1.85;;
49834;SDS011;35729;52.090;13.162;2023-07-24T06:44:58;2.05;;;1.38;;
49834;SDS011;35729;52.090;13.162;2023-07-24T06:47:26;1.83;;;1.42;;
49834;SDS011;35729;52.090;13.162;2023-07-24T06:49:57;2.40;;;1.35;;
49834;SDS011;35729;52.090;13.162;2023-07-24T06:52:27;2.10;;;1.73;;
49834;SDS011;35729;52.090;13.162;2023-07-24T06:54:55;1.48;;;1.30;;
49834;SDS011;35729;52.090;13.162;2023-07-24T06:57:24;2.13;;;1.60;;
49834;SDS011;35729;52.090;13.162;2023-07-24T06:59:53;4.22;;;1.65;;
49834;SDS011;35729;52.090;13.162;2023-07-24T07:02:27;3.85;;;1.50;;
49834;SDS011;35729;52.090;13.162;2023-07-24T07:04:59;2.60;;;1.75;;
49834;SDS011;35729;52.090;13.162;2023-07-24T07:07:27;4.40;;;1.77;;
49834;SDS011;35729;52.090;13.162;2023-07-24T07:09:55;4.10;;;1.63;;
49834;SDS011;35729;52.090;13.162;2023-07-24T07:12:24;3.17;;;2.10;;
49834;SDS011;35729;52.090;13.162;2023-07-24T07:14:52;2.35;;;1.55;;
49834;SDS011;35729;52.090;13.162;2023-07-24T07:17:21;4.70;;;1.90;;
49834;SDS011;35729;52.090;13.162;2023-07-24T07:19:49;2.17;;;1.60;;
49834;SDS011;35729;52.090;13.162;2023-07-24T07:22:20;2.55;;;1.58;;
49834;SDS011;35729;52.090;13.162;2023-07-24T07:24:49;3.92;;;1.90;;
49834;SDS011;35729;52.090;13.162;2023-07-24T07:27:17;2.55;;;1.60;;
49834;SDS011;35729;52.090;13.162;2023-07-24T07:29:46;3.72;;;1.90;;
49834;SDS011;35729;52.090;13.162;2023-07-24T07:32:14;2.13;;;1.65;;
49834;SDS011;35729;52.090;13.162;2023-07-24T07:34:43;2.47;;;1.75;;
49834;SDS011;35729;52.090;13.162;2023-07-24T07:37:11;3.50;;;2.00;;
49834;SDS011;35729;52.090;13.162;2023-07-24T07:39:43;2.15;;;1.73;;
49834;SDS011;35729;52.090;13.162;2023-07-24T07:42:11;2.30;;;1.80;;
49834;SDS011;35729;52.090;13.162;2023-07-24T07:44:40;2.10;;;1.90;;
49834;SDS011;35729;52.090;13.162;2023-07-24T07:47:08;3.45;;;1.63;;
49834;SDS011;35729;52.090;13.162;2023-07-24T07:49:37;5.50;;;1.70;;
49834;SDS011;35729;52.090;13.162;2023-07-24T07:52:06;2.60;;;1.60;;
49834;SDS011;35729;52.090;13.162;2023-07-24T07:54:35;1.92;;;1.35;;
49834;SDS011;35729;52.090;13.162;2023-07-24T07:57:06;2.80;;;1.92;;
49834;SDS011;35729;52.090;13.162;2023-07-24T07:59:35;3.17;;;1.80;;
49834;SDS011;35729;52.090;13.162;2023-07-24T08:02:03;2.03;;;1.58;;
49834;SDS011;35729;52.090;13.162;2023-07-24T08:04:32;2.85;;;1.63;;
49834;SDS011;35729;52.090;13.162;2023-07-24T08:07:00;2.83;;;1.70;;
49834;SDS011;35729;52.090;13.162;2023-07-24T08:09:29;4.78;;;1.60;;
49834;SDS011;35729;52.090;13.162;2023-07-24T08:11:58;3.10;;;1.77;;
49834;SDS011;35729;52.090;13.162;2023-07-24T08:14:29;3.72;;;1.60;;
49834;SDS011;35729;52.090;13.162;2023-07-24T08:16:58;2.00;;;1.73;;
49834;SDS011;35729;52.090;13.162;2023-07-24T08:19:27;2.67;;;1.88;;
49834;SDS011;35729;52.090;13.162;2023-07-24T08:21:56;2.35;;;1.92;;
49834;SDS011;35729;52.090;13.162;2023-07-24T08:24:24;4.50;;;2.35;;
49834;SDS011;35729;52.090;13.162;2023-07-24T08:26:53;2.25;;;1.77;;
49834;SDS011;35729;52.090;13.162;2023-07-24T08:29:21;3.20;;;1.90;;
49834;SDS011;35729;52.090;13.162;2023-07-24T08:31:52;3.67;;;1.90;;
49834;SDS011;35729;52.090;13.162;2023-07-24T08:34:21;3.55;;;2.00;;
49834;SDS011;35729;52.090;13.162;2023-07-24T08:36:49;3.65;;;2.38;;
49834;SDS011;35729;52.090;13.162;2023-07-24T08:39:18;2.50;;;2.20;;
49834;SDS011;35729;52.090;13.162;2023-07-24T08:41:46;4.97;;;2.38;;
49834;SDS011;35729;52.090;13.162;2023-07-24T08:44:15;3.30;;;2.33;;
49834;SDS011;35729;52.090;13.162;2023-07-24T08:46:44;4.07;;;2.38;;
49834;SDS011;35729;52.090;13.162;2023-07-24T08:49:15;6.00;;;2.38;;
49834;SDS011;35729;52.090;13.162;2023-07-24T08:51:45;3.97;;;2.58;;
49834;SDS011;35729;52.090;13.162;2023-07-24T08:54:14;2.90;;;2.22;;
49834;SDS011;35729;52.090;13.162;2023-07-24T08:56:44;4.78;;;2.33;;
49834;SDS011;35729;52.090;13.162;2023-07-24T08:59:15;2.63;;;2.17;;
49834;SDS011;35729;52.090;13.162;2023-07-24T09:01:44;8.98;;;2.53;;
49834;SDS011;35729;52.090;13.162;2023-07-24T09:04:12;3.42;;;2.33;;
49834;SDS011;35729;52.090;13.162;2023-07-24T09:06:43;4.30;;;2.50;;
49834;SDS011;35729;52.090;13.162;2023-07-24T09:09:14;4.22;;;2.20;;
49834;SDS011;35729;52.090;13.162;2023-07-24T09:11:46;4.40;;;2.65;;
49834;SDS011;35729;52.090;13.162;2023-07-24T09:14:21;3.13;;;2.50;;
49834;SDS011;35729;52.090;13.162;2023-07-24T09:17:03;3.70;;;2.55;;
49834;SDS011;35729;52.090;13.162;2023-07-24T09:19:35;4.13;;;2.75;;
49834;SDS011;35729;52.090;13.162;2023-07-24T09:22:08;7.35;;;2.97;;
49834;SDS011;35729;52.090;13.162;2023-07-24T09:24:48;5.07;;;2.70;;
49834;SDS011;35729;52.090;13.162;2023-07-24T09:27:17;4.35;;;2.35;;
49834;SDS011;35729;52.090;13.162;2023-07-24T09:29:46;4.55;;;2.40;;
49834;SDS011;35729;52.090;13.162;2023-07-24T09:32:20;3.20;;;2.63;;
49834;SDS011;35729;52.090;13.162;2023-07-24T09:34:52;3.58;;;2.45;;
49834;SDS011;35729;52.090;13.162;2023-07-24T09:37:24;6.13;;;2.83;;
49834;SDS011;35729;52.090;13.162;2023-07-24T09:40:03;3.55;;;2.50;;
49834;SDS011;35729;52.090;13.162;2023-07-24T09:42:33;4.35;;;2.40;;
49834;SDS011;35729;52.090;13.162;2023-07-24T09:45:03;5.30;;;2.50;;
49834;SDS011;35729;52.090;13.162;2023-07-24T09:47:33;5.82;;;2.97;;
49834;SDS011;35729;52.090;13.162;2023-07-24T09:50:05;3.75;;;2.72;;
49834;SDS011;35729;52.090;13.162;2023-07-24T09:52:35;4.00;;;2.97;;
49834;SDS011;35729;52.090;13.162;2023-07-24T09:55:05;5.57;;;3.20;;
49834;SDS011;35729;52.090;13.162;2023-07-24T09:57:39;2.92;;;2.33;;
49834;SDS011;35729;52.090;13.162;2023-07-24T10:00:08;3.88;;;2.95;;
49834;SDS011;35729;52.090;13.162;2023-07-24T10:02:39;4.75;;;3.38;;
49834;SDS011;35729;52.090;13.162;2023-07-24T10:05:11;3.95;;;2.78;;
49834;SDS011;35729;52.090;13.162;2023-07-24T10:07:40;3.95;;;2.92;;
49834;SDS011;35729;52.090;13.162;2023-07-24T10:10:09;4.43;;;3.40;;
49834;SDS011;35729;52.090;13.162;2023-07-24T10:12:38;3.95;;;2.95;;
49834;SDS011;35729;52.090;13.162;2023-07-24T10:15:07;4.50;;;2.80;;
49834;SDS011;35729;52.090;13.162;2023-07-24T10:17:36;5.25;;;3.63;;
49834;SDS011;35729;52.090;13.162;2023-07-24T10:20:06;5.80;;;3.28;;
49834;SDS011;35729;52.090;13.162;2023-07-24T10:22:40;6.47;;;3.35;;
49834;SDS011;35729;52.090;13.162;2023-07-24T10:25:09;5.72;;;3.85;;
49834;SDS011;35729;52.090;13.162;2023-07-24T10:27:39;4.03;;;3.10;;
49834;SDS011;35729;52.090;13.162;2023-07-24T10:32:45;4.20;;;3.05;;
49834;SDS011;35729;52.090;13.162;2023-07-24T10:35:15;4.82;;;3.60;;
49834;SDS011;35729;52.090;13.162;2023-07-24T10:37:48;4.95;;;3.30;;
49834;SDS011;35729;52.090;13.162;2023-07-24T10:40:27;4.28;;;3.45;;
49834;SDS011;35729;52.090;13.162;2023-07-24T10:42:59;6.90;;;3.80;;
49834;SDS011;35729;52.090;13.162;2023-07-24T10:45:38;6.00;;;4.00;;
49834;SDS011;35729;52.090;13.162;2023-07-24T10:48:07;5.88;;;3.90;;
49834;SDS011;35729;52.090;13.162;2023-07-24T10:50:37;7.40;;;4.00;;
49834;SDS011;35729;52.090;13.162;2023-07-24T10:53:09;5.63;;;3.80;;
49834;SDS011;35729;52.090;13.162;2023-07-24T10:55:38;6.90;;;4.20;;
49834;SDS011;35729;52.090;13.162;2023-07-24T10:58:07;8.35;;;3.97;;
49834;SDS011;35729;52.090;13.162;2023-07-24T11:00:38;6.95;;;4.18;;
49834;SDS011;35729;52.090;13.162;2023-07-24T11:03:07;5.80;;;4.43;;
49834;SDS011;35729;52.090;13.162;2023-07-24T11:05:39;8.07;;;3.83;;
49834;SDS011;35729;52.090;13.162;2023-07-24T11:08:13;6.82;;;3.90;;
49834;SDS011;35729;52.090;13.162;2023-07-24T11:10:46;9.02;;;4.25;;
49834;SDS011;35729;52.090;13.162;2023-07-24T11:13:15;5.25;;;4.03;;
49834;SDS011;35729;52.090;13.162;2023-07-24T11:15:44;7.43;;;4.10;;
49834;SDS011;35729;52.090;13.162;2023-07-24T11:18:13;6.50;;;3.67;;
49834;SDS011;35729;52.090;13.162;2023-07-24T11:20:46;4.82;;;4.25;;
49834;SDS011;35729;52.090;13.162;2023-07-24T11:23:18;5.50;;;3.63;;
49834;SDS011;35729;52.090;13.162;2023-07-24T11:25:49;6.65;;;3.95;;
49834;SDS011;35729;52.090;13.162;2023-07-24T11:28:19;5.10;;;3.88;;
49834;SDS011;35729;52.090;13.162;2023-07-24T11:30:48;5.80;;;4.53;;
49834;SDS011;35729;52.090;13.162;2023-07-24T11:33:17;5.80;;;4.25;;
49834;SDS011;35729;52.090;13.162;2023-07-24T11:35:45;4.25;;;3.55;;
49834;SDS011;35729;52.090;13.162;2023-07-24T11:38:16;6.30;;;3.88;;
49834;SDS011;35729;52.090;13.162;2023-07-24T11:40:47;5.82;;;3.92;;
49834;SDS011;35729;52.090;13.162;2023-07-24T11:43:16;5.10;;;4.13;;
49834;SDS011;35729;52.090;13.162;2023-07-24T11:45:46;9.10;;;3.97;;
49834;SDS011;35729;52.090;13.162;2023-07-24T11:48:17;7.22;;;4.07;;
49834;SDS011;35729;52.090;13.162;2023-07-24T11:50:47;5.32;;;4.18;;
49834;SDS011;35729;52.090;13.162;2023-07-24T11:53:23;8.68;;;4.40;;
49834;SDS011;35729;52.090;13.162;2023-07-24T11:55:53;5.32;;;3.85;;
49834;SDS011;35729;52.090;13.162;2023-07-24T11:58:25;6.50;;;4.40;;
49834;SDS011;35729;52.090;13.162;2023-07-24T12:00:54;7.97;;;4.47;;
49834;SDS011;35729;52.090;13.162;2023-07-24T12:03:24;11.35;;;4.80;;
49834;SDS011;35729;52.090;13.162;2023-07-24T12:05:54;5.50;;;4.40;;
49834;SDS011;35729;52.090;13.162;2023-07-24T12:08:32;8.93;;;4.70;;
49834;SDS011;35729;52.090;13.162;2023-07-24T12:11:02;7.03;;;4.97;;
49834;SDS011;35729;52.090;13.162;2023-07-24T12:13:30;10.75;;;5.05;;
49834;SDS011;35729;52.090;13.162;2023-07-24T12:15:59;6.47;;;4.20;;
49834;SDS011;35729;52.090;13.162;2023-07-24T12:18:28;8.70;;;4.57;;
49834;SDS011;35729;52.090;13.162;2023-07-24T12:20:57;5.88;;;4.32;;
49834;SDS011;35729;52.090;13.162;2023-07-24T12:23:25;6.40;;;4.57;;
49834;SDS011;35729;52.090;13.162;2023-07-24T12:25:56;6.85;;;4.50;;
49834;SDS011;35729;52.090;13.162;2023-07-24T12:28:24;9.05;;;4.38;;
49834;SDS011;35729;52.090;13.162;2023-07-24T12:30:53;6.38;;;4.80;;
49834;SDS011;35729;52.090;13.162;2023-07-24T12:33:21;6.13;;;4.68;;
49834;SDS011;35729;52.090;13.162;2023-07-24T12:35:50;7.90;;;5.10;;
49834;SDS011;35729;52.090;13.162;2023-07-24T12:38:19;6.38;;;4.45;;
49834;SDS011;35729;52.090;13.162;2023-07-24T12:40:48;8.80;;;4.75;;
49834;SDS011;35729;52.090;13.162;2023-07-24T12:43:19;6.10;;;4.25;;
49834;SDS011;35729;52.090;13.162;2023-07-24T12:45:47;5.72;;;4.18;;
49834;SDS011;35729;52.090;13.162;2023-07-24T12:48:16;5.63;;;4.50;;
49834;SDS011;35729;52.090;13.162;2023-07-24T12:50:45;5.70;;;4.65;;
49834;SDS011;35729;52.090;13.162;2023-07-24T12:53:13;9.43;;;5.20;;
49834;SDS011;35729;52.090;13.162;2023-07-24T12:55:41;5.28;;;4.78;;
49834;SDS011;35729;52.090;13.162;2023-07-24T12:58:10;5.63;;;4.70;;
49834;SDS011;35729;52.090;13.162;2023-07-24T13:00:41;7.63;;;4.68;;
49834;SDS011;35729;52.090;13.162;2023-07-24T13:03:16;7.18;;;4.50;;
49834;SDS011;35729;52.090;13.162;2023-07-24T13:05:46;7.53;;;5.03;;
49834;SDS011;35729;52.090;13.162;2023-07-24T13:08:15;7.50;;;4.65;;
49834;SDS011;35729;52.090;13.162;2023-07-24T13:10:47;6.28;;;4.65;;
49834;SDS011;35729;52.090;13.162;2023-07-24T13:13:12;9.63;;;5.65;;
49834;SDS011;35729;52.090;13.162;2023-07-24T13:15:43;6.00;;;4.47;;
49834;SDS011;35729;52.090;13.162;2023-07-24T13:18:12;12.65;;;5.47;;
49834;SDS011;35729;52.090;13.162;2023-07-24T13:20:45;8.10;;;4.78;;
49834;SDS011;35729;52.090;13.162;2023-07-24T13:23:13;6.68;;;4.70;;
49834;SDS011;35729;52.090;13.162;2023-07-24T13:25:42;7.82;;;4.55;;
49834;SDS011;35729;52.090;13.162;2023-07-24T13:28:10;7.63;;;5.15;;
49834;SDS011;35729;52.090;13.162;2023-07-24T13:30:38;7.88;;;5.82;;
49834;SDS011;35729;52.090;13.162;2023-07-24T13:33:10;7.82;;;4.82;;
49834;SDS011;35729;52.090;13.162;2023-07-24T13:35:38;6.75;;;4.93;;
49834;SDS011;35729;52.090;13.162;2023-07-24T13:38:07;6.55;;;4.82;;
49834;SDS011;35729;52.090;13.162;2023-07-24T13:40:36;7.07;;;4.22;;
49834;SDS011;35729;52.090;13.162;2023-07-24T13:43:05;8.52;;;5.65;;
49834;SDS011;35729;52.090;13.162;2023-07-24T13:45:33;8.90;;;4.90;;
49834;SDS011;35729;52.090;13.162;2023-07-24T13:48:02;9.38;;;5.13;;
49834;SDS011;35729;52.090;13.162;2023-07-24T13:50:33;10.43;;;5.10;;
49834;SDS011;35729;52.090;13.162;2023-07-24T13:53:02;6.25;;;4.80;;
49834;SDS011;35729;52.090;13.162;2023-07-24T13:55:30;7.05;;;5.00;;
49834;SDS011;35729;52.090;13.162;2023-07-24T13:57:59;8.00;;;4.53;;
49834;SDS011;35729;52.090;13.162;2023-07-24T14:00:27;8.18;;;5.40;;
49834;SDS011;35729;52.090;13.162;2023-07-24T14:02:56;7.47;;;5.00;;
49834;SDS011;35729;52.090;13.162;2023-07-24T14:05:24;7.45;;;5.13;;
49834;SDS011;35729;52.090;13.162;2023-07-24T14:07:56;8.40;;;5.57;;
49834;SDS011;35729;52.090;13.162;2023-07-24T14:10:24;6.65;;;5.63;;
49834;SDS011;35729;52.090;13.162;2023-07-24T14:12:53;7.75;;;5.43;;
49834;SDS011;35729;52.090;13.162;2023-07-24T14:15:21;8.00;;;5.28;;
49834;SDS011;35729;52.090;13.162;2023-07-24T14:17:50;8.20;;;5.22;;
49834;SDS011;35729;52.090;13.162;2023-07-24T14:20:18;8.65;;;4.93;;
49834;SDS011;35729;52.090;13.162;2023-07-24T14:22:47;9.43;;;5.78;;
49834;SDS011;35729;52.090;13.162;2023-07-24T14:25:18;9.02;;;6.05;;
49834;SDS011;35729;52.090;13.162;2023-07-24T14:27:47;9.10;;;6.07;;
49834;SDS011;35729;52.090;13.162;2023-07-24T14:30:15;13.23;;;6.57;;
49834;SDS011;35729;52.090;13.162;2023-07-24T14:32:44;9.80;;;5.80;;
49834;SDS011;35729;52.090;13.162;2023-07-24T14:35:12;6.95;;;5.45;;
49834;SDS011;35729;52.090;13.162;2023-07-24T14:37:41;8.45;;;5.38;;
49834;SDS011;35729;52.090;13.162;2023-07-24T14:40:10;7.95;;;5.22;;
49834;SDS011;35729;52.090;13.162;2023-07-24T14:42:41;8.70;;;4.90;;
49834;SDS011;35729;52.090;13.162;2023-07-24T14:45:10;6.78;;;4.75;;
49834;SDS011;35729;52.090;13.162;2023-07-24T14:47:38;11.23;;;4.53;;
49834;SDS011;35729;52.090;13.162;2023-07-24T14:50:07;5.15;;;4.18;;